Time;durP1;ratioP1;P1;durP2;ratioP2;P2;SDS_P1;SDS_P2;PMS_P1;PMS_P2;Temp;Humidity;BMP_temperature;BMP_pressure;BME280_temperature;BME280_humidity;BME280_pressure;Samples;Min_cycle;Max_cycle;Signal;HPM_P1;HPM_P2
2022/04/18 00:01:09;;;;;;;25.95;16.45;;;6.90;91.00;;;;;;5091343;28;20333;-79
2022/04/18 00:03:35;;;;;;;24.83;16.33;;;6.90;91.00;;;;;;5091532;28;20038;-79
2022/04/18 00:06:02;;;;;;;25.35;15.48;;;6.90;91.10;;;;;;5090925;28;20024;-79
2022/04/18 00:08:27;;;;;;;22.55;14.82;;;6.80;91.10;;;;;;5091559;28;20375;-80
2022/04/18 00:10:53;;;;;;;22.27;14.27;;;6.80;91.10;;;;;;5091521;28;20040;-76
2022/04/18 00:13:18;;;;;;;21.48;13.65;;;6.80;91.20;;;;;;5091363;28;20066;-77
2022/04/18 00:15:44;;;;;;;22.23;14.32;;;6.80;91.30;;;;;;5071960;28;20042;-78
2022/04/18 00:18:09;;;;;;;23.83;15.00;;;6.70;91.40;;;;;;5073331;28;20107;-79
2022/04/18 00:20:35;;;;;;;21.30;13.63;;;6.70;91.50;;;;;;5091239;28;20422;-78
2022/04/18 00:23:00;;;;;;;19.35;12.77;;;6.70;91.50;;;;;;5090930;28;20461;-76
2022/04/18 00:25:26;;;;;;;20.15;13.50;;;6.70;91.50;;;;;;5090743;28;20107;-77
2022/04/18 00:27:51;;;;;;;21.88;12.68;;;6.60;91.60;;;;;;5091324;28;20024;-79
2022/04/18 00:30:17;;;;;;;20.05;13.57;;;6.60;91.60;;;;;;5091148;28;20460;-78
2022/04/18 00:32:42;;;;;;;18.67;13.05;;;6.60;91.70;;;;;;5090691;28;20028;-79
2022/04/18 00:35:08;;;;;;;17.85;12.63;;;6.60;91.70;;;;;;5072910;28;20134;-77
2022/04/18 00:37:36;;;;;;;23.08;14.05;;;6.60;91.80;;;;;;5090195;28;20052;-76
2022/04/18 00:40:03;;;;;;;20.23;12.82;;;6.50;91.80;;;;;;5072317;28;20071;-77
2022/04/18 00:42:28;;;;;;;22.40;13.20;;;6.50;91.90;;;;;;5090610;28;20028;-77
2022/04/18 00:44:54;;;;;;;21.80;13.15;;;6.50;91.90;;;;;;5091255;28;20248;-79
2022/04/18 00:47:19;;;;;;;15.85;12.30;;;6.50;92.00;;;;;;5090157;28;20037;-79
2022/04/18 00:49:45;;;;;;;21.50;13.23;;;6.40;92.00;;;;;;5091148;28;20043;-77
2022/04/18 00:52:11;;;;;;;17.70;12.40;;;6.40;92.00;;;;;;5090624;28;20051;-79
2022/04/18 00:54:37;;;;;;;18.20;12.40;;;6.40;92.20;;;;;;5072502;28;20392;-78
2022/04/18 00:57:03;;;;;;;15.35;11.38;;;6.30;92.20;;;;;;5090232;28;20023;-77
2022/04/18 00:59:31;;;;;;;18.90;12.13;;;6.30;92.30;;;;;;5090546;28;20039;-77
2022/04/18 01:01:57;;;;;;;18.90;12.00;;;6.30;92.40;;;;;;5090653;28;20063;-79
2022/04/18 01:04:22;;;;;;;18.42;12.02;;;6.30;92.40;;;;;;5090654;28;20527;-79
2022/04/18 01:06:48;;;;;;;17.25;13.15;;;6.20;92.40;;;;;;5089978;28;20020;-79
2022/04/18 01:09:14;;;;;;;19.83;12.35;;;6.20;92.50;;;;;;5090422;28;20075;-79
2022/04/18 01:11:40;;;;;;;17.48;13.13;;;6.10;92.60;;;;;;5090426;28;20058;-78
2022/04/18 01:14:06;;;;;;;23.60;15.07;;;6.10;92.70;;;;;;5090774;28;20024;-78
2022/04/18 01:16:32;;;;;;;20.63;14.13;;;6.10;92.80;;;;;;5089893;28;20021;-79
2022/04/18 01:18:57;;;;;;;23.85;15.32;;;6.00;92.90;;;;;;5090752;28;20107;-79
2022/04/18 01:21:23;;;;;;;20.58;14.38;;;6.00;93.00;;;;;;5090367;28;20049;-78
2022/04/18 01:23:49;;;;;;;20.35;14.25;;;6.00;93.00;;;;;;5090562;28;20024;-80
2022/04/18 01:28:59;;;;;;;17.88;12.30;;;5.90;93.10;;;;;;5090364;28;20089;-77
2022/04/18 01:31:25;;;;;;;20.83;14.45;;;5.90;93.40;;;;;;5071906;28;20458;-77
2022/04/18 01:33:51;;;;;;;22.20;13.70;;;5.90;93.30;;;;;;5090562;28;20024;-79
2022/04/18 01:36:16;;;;;;;21.63;13.82;;;5.80;93.30;;;;;;5070883;28;20035;-76
2022/04/18 01:38:42;;;;;;;20.40;13.77;;;5.80;93.30;;;;;;5068837;28;20670;-77
2022/04/18 01:41:08;;;;;;;21.08;14.55;;;5.80;93.40;;;;;;5052002;28;20024;-79
2022/04/18 01:43:33;;;;;;;19.63;14.20;;;5.80;93.50;;;;;;5070049;28;20033;-79
2022/04/18 01:45:58;;;;;;;21.67;12.82;;;5.70;93.50;;;;;;5069393;28;20496;-78
2022/04/18 01:48:24;;;;;;;18.30;12.27;;;5.70;93.60;;;;;;5070375;28;20028;-79
2022/04/18 01:50:49;;;;;;;20.35;13.60;;;5.70;93.60;;;;;;5071181;28;20055;-80
2022/04/18 01:53:15;;;;;;;16.60;11.38;;;5.60;93.60;;;;;;5074016;28;20043;-77
2022/04/18 01:55:40;;;;;;;16.42;11.15;;;5.60;93.60;;;;;;5073010;28;20029;-77
2022/04/18 01:58:06;;;;;;;20.13;12.20;;;5.50;93.70;;;;;;5074609;28;20372;-77
2022/04/18 02:00:32;;;;;;;17.23;12.13;;;5.50;93.70;;;;;;5073547;28;20037;-78
2022/04/18 02:02:58;;;;;;;17.15;11.07;;;5.50;93.80;;;;;;5073727;28;20079;-78
2022/04/18 02:05:24;;;;;;;19.73;12.60;;;5.40;93.90;;;;;;5073155;28;20354;-78
2022/04/18 02:07:49;;;;;;;16.80;12.10;;;5.40;93.80;;;;;;5073694;28;20354;-79
2022/04/18 02:10:15;;;;;;;16.05;11.85;;;5.40;93.80;;;;;;5073726;28;20400;-78
2022/04/18 02:12:40;;;;;;;18.35;12.65;;;5.40;93.90;;;;;;5073289;28;20145;-80
2022/04/18 02:15:07;;;;;;;17.45;12.50;;;5.40;93.90;;;;;;5073284;28;20099;-79
2022/04/18 02:17:32;;;;;;;15.82;10.88;;;5.30;93.90;;;;;;5072026;28;20021;-79
2022/04/18 02:19:57;;;;;;;15.90;11.63;;;5.30;94.00;;;;;;5073646;28;20044;-81
2022/04/18 02:22:23;;;;;;;16.17;11.23;;;5.30;94.10;;;;;;5072940;28;20461;-79
2022/04/18 02:24:49;;;;;;;18.52;11.43;;;5.20;94.20;;;;;;5073587;28;20518;-78
2022/04/18 02:27:15;;;;;;;16.13;11.85;;;5.20;94.40;;;;;;5072687;28;20048;-78
2022/04/18 02:29:41;;;;;;;16.83;11.00;;;5.20;94.50;;;;;;5073169;28;20135;-79
2022/04/18 02:34:51;;;;;;;14.60;11.00;;;5.10;94.50;;;;;;5073300;28;20078;-77
2022/04/18 02:37:16;;;;;;;17.42;10.77;;;5.10;94.60;;;;;;5072178;28;20450;-78
2022/04/18 02:39:42;;;;;;;15.60;9.45;;;5.10;94.50;;;;;;5073348;28;20377;-79
2022/04/18 02:42:08;;;;;;;14.63;9.70;;;5.00;94.50;;;;;;5072945;28;20033;-76
2022/04/18 02:44:33;;;;;;;14.85;10.30;;;5.00;94.60;;;;;;5072766;28;20028;-77
2022/04/18 02:46:59;;;;;;;15.45;10.82;;;5.00;95.00;;;;;;5072384;28;20045;-77
2022/04/18 02:49:24;;;;;;;16.05;9.63;;;5.00;94.80;;;;;;5072709;28;20078;-75
2022/04/18 02:51:50;;;;;;;15.75;10.85;;;5.00;95.00;;;;;;5072905;28;20453;-77
2022/04/18 02:54:15;;;;;;;16.02;11.00;;;5.00;95.00;;;;;;5072850;28;20372;-78
2022/04/18 02:56:41;;;;;;;14.38;10.15;;;4.90;95.00;;;;;;5071973;28;20033;-76
2022/04/18 02:59:06;;;;;;;15.68;10.77;;;4.90;95.10;;;;;;5054843;28;20035;-78
2022/04/18 03:01:32;;;;;;;15.73;10.05;;;4.90;95.10;;;;;;5072287;28;20074;-76
2022/04/18 03:03:57;;;;;;;14.45;10.40;;;4.80;95.10;;;;;;5072127;28;20554;-77
2022/04/18 03:06:23;;;;;;;14.02;9.27;;;4.80;95.20;;;;;;5071824;28;20038;-77
2022/04/18 03:08:48;;;;;;;13.23;9.70;;;4.80;95.30;;;;;;5071065;28;20530;-77
2022/04/18 03:11:13;;;;;;;12.77;8.18;;;4.80;95.20;;;;;;5072374;28;20031;-77
2022/04/18 03:13:47;;;;;;;11.20;8.60;;;4.80;95.20;;;;;;5072450;28;20029;-77
2022/04/18 03:16:13;;;;;;;12.52;8.60;;;4.70;95.10;;;;;;5071689;28;20530;-77
2022/04/18 03:18:40;;;;;;;11.52;8.57;;;4.70;95.10;;;;;;5072116;28;20376;-78
2022/04/18 03:21:06;;;;;;;11.65;7.97;;;4.70;95.10;;;;;;5072051;28;20032;-78
2022/04/18 03:23:32;;;;;;;11.60;8.27;;;4.70;95.10;;;;;;5072212;28;20032;-78
2022/04/18 03:25:57;;;;;;;11.15;7.88;;;4.70;95.10;;;;;;5054011;28;20029;-77
2022/04/18 03:28:25;;;;;;;12.60;8.68;;;4.70;95.10;;;;;;5072126;28;20520;-78
2022/04/18 03:30:51;;;;;;;17.88;9.68;;;4.70;95.10;;;;;;5071862;28;20066;-76
2022/04/18 03:33:16;;;;;;;15.02;8.68;;;4.70;95.10;;;;;;5071763;28;20060;-78
2022/04/18 03:39:50;;;;;;;11.55;8.70;;;4.70;95.10;;;;;;5053195;28;20520;-77
2022/04/18 03:41:11;;;;;;;15.02;9.23;;;4.60;95.20;;;;;;5071609;28;20434;-79
2022/04/18 03:43:37;;;;;;;15.50;9.75;;;4.60;95.20;;;;;;5053843;28;20111;-79
2022/04/18 03:46:02;;;;;;;15.73;10.30;;;4.60;95.30;;;;;;5071149;28;20377;-77
2022/04/18 03:48:28;;;;;;;13.25;9.93;;;4.60;95.40;;;;;;5054113;28;20042;-76
2022/04/18 03:50:53;;;;;;;16.00;9.93;;;4.60;95.50;;;;;;5071073;28;20068;-76
2022/04/18 03:53:19;;;;;;;20.73;10.45;;;4.50;95.30;;;;;;5053451;28;20030;-76
2022/04/18 03:55:44;;;;;;;14.13;9.95;;;4.50;95.40;;;;;;5070752;28;20028;-77
2022/04/18 03:58:10;;;;;;;15.85;10.45;;;4.50;95.40;;;;;;5071649;28;20028;-76
2022/04/18 04:00:36;;;;;;;12.50;9.50;;;4.50;95.50;;;;;;5071281;28;20417;-79
2022/04/18 04:03:01;;;;;;;18.27;9.05;;;4.50;95.50;;;;;;5070873;28;20025;-78
2022/04/18 04:05:27;;;;;;;15.18;8.98;;;4.50;95.50;;;;;;5070552;28;20047;-79
2022/04/18 04:07:52;;;;;;;15.32;9.85;;;4.50;95.70;;;;;;5053019;28;20055;-80
2022/04/18 04:10:18;;;;;;;15.77;9.13;;;4.50;95.60;;;;;;5071195;28;20496;-77
2022/04/18 04:12:43;;;;;;;14.32;10.27;;;4.40;95.60;;;;;;5070621;28;20028;-79
2022/04/18 04:15:09;;;;;;;14.32;10.05;;;4.40;95.60;;;;;;5070042;28;20048;-79
2022/04/18 04:17:35;;;;;;;17.27;10.70;;;4.40;95.60;;;;;;5070516;28;20035;-80
2022/04/18 04:20:01;;;;;;;14.82;8.88;;;4.40;95.60;;;;;;5052604;28;20097;-79
2022/04/18 04:22:26;;;;;;;12.98;8.63;;;4.40;95.60;;;;;;5052568;28;20032;-79
2022/04/18 04:24:52;;;;;;;13.55;8.57;;;4.40;95.60;;;;;;5070987;28;20024;-79
2022/04/18 04:27:17;;;;;;;15.85;8.73;;;4.40;95.50;;;;;;5070127;28;20031;-76
2022/04/18 04:29:43;;;;;;;13.05;8.55;;;4.40;95.50;;;;;;5070602;28;20044;-77
2022/04/18 04:32:08;;;;;;;13.63;8.25;;;4.40;95.50;;;;;;5070450;28;20103;-78
2022/04/18 04:34:34;;;;;;;16.00;8.30;;;4.40;95.50;;;;;;5069073;28;20033;-81
2022/04/18 04:37:00;;;;;;;12.95;8.23;;;4.50;95.50;;;;;;5051982;28;20051;-78
2022/04/18 04:39:25;;;;;;;8.57;6.82;;;4.50;95.40;;;;;;5052489;28;20032;-78
2022/04/18 04:41:51;;;;;;;11.55;6.70;;;4.50;95.30;;;;;;5070339;28;20025;-79
2022/04/18 04:44:17;;;;;;;9.85;6.57;;;4.50;95.30;;;;;;5070321;28;20031;-78
2022/04/18 04:46:43;;;;;;;10.02;6.82;;;4.50;95.20;;;;;;5051906;28;20016;-79
2022/04/18 04:49:09;;;;;;;9.30;6.22;;;4.50;95.20;;;;;;5070281;28;20522;-78
2022/04/18 04:51:34;;;;;;;8.02;5.22;;;4.60;95.10;;;;;;5070133;28;20047;-78
2022/04/18 04:54:00;;;;;;;7.32;5.22;;;4.60;95.10;;;;;;5052674;28;20020;-78
2022/04/18 04:56:26;;;;;;;8.07;6.68;;;4.60;95.00;;;;;;5069728;28;20020;-78
2022/04/18 04:58:53;;;;;;;12.63;6.95;;;4.60;95.00;;;;;;5070724;28;20380;-79
2022/04/18 05:01:19;;;;;;;8.20;6.30;;;4.70;95.10;;;;;;5070097;28;20059;-80
2022/04/18 05:03:44;;;;;;;9.32;6.05;;;4.60;95.10;;;;;;5070499;28;20446;-79
2022/04/18 05:06:11;;;;;;;9.77;6.72;;;4.70;95.00;;;;;;5069629;28;20020;-79
2022/04/18 05:08:36;;;;;;;10.18;6.13;;;4.70;95.00;;;;;;5052416;28;20024;-79
2022/04/18 05:11:02;;;;;;;10.05;6.38;;;4.70;95.00;;;;;;5070005;28;20040;-77
2022/04/18 05:13:28;;;;;;;8.80;5.32;;;4.80;95.00;;;;;;5070493;28;20052;-78
2022/04/18 05:15:53;;;;;;;7.32;5.05;;;4.80;95.00;;;;;;5069902;28;20081;-80
2022/04/18 05:18:19;;;;;;;7.82;5.25;;;4.80;95.00;;;;;;5070327;28;20028;-79
2022/04/18 05:20:45;;;;;;;6.28;4.88;;;4.90;94.90;;;;;;5070089;28;20048;-80
2022/04/18 05:23:12;;;;;;;7.80;5.35;;;4.90;94.70;;;;;;5070608;28;20065;-79
2022/04/18 05:25:37;;;;;;;8.23;5.43;;;5.00;94.70;;;;;;5052976;28;20016;-78
2022/04/18 05:28:03;;;;;;;7.68;5.50;;;5.00;94.50;;;;;;5056524;28;20031;-78
2022/04/18 05:30:29;;;;;;;5.60;4.45;;;5.10;94.50;;;;;;5074483;28;20036;-79
2022/04/18 05:32:54;;;;;;;6.43;4.63;;;5.20;94.40;;;;;;5074195;28;20063;-79
2022/04/18 05:35:20;;;;;;;8.07;4.68;;;5.20;94.30;;;;;;5073588;28;20033;-78
2022/04/18 05:37:47;;;;;;;6.35;4.40;;;5.20;94.10;;;;;;5056373;28;20082;-79
2022/04/18 05:40:12;;;;;;;6.30;4.53;;;5.30;94.10;;;;;;5074433;28;20079;-77
2022/04/18 05:42:38;;;;;;;6.55;4.70;;;5.30;94.10;;;;;;5073801;28;20143;-79
2022/04/18 05:45:06;;;;;;;7.45;4.65;;;5.30;94.20;;;;;;5074272;28;20032;-78
2022/04/18 05:47:31;;;;;;;5.70;4.22;;;5.40;94.20;;;;;;5073489;28;20461;-80
2022/04/18 05:49:57;;;;;;;6.78;4.30;;;5.50;94.20;;;;;;5073971;28;20035;-78
2022/04/18 05:52:22;;;;;;;7.00;4.85;;;5.60;94.20;;;;;;5073544;28;20025;-78
2022/04/18 05:54:48;;;;;;;6.97;4.22;;;5.70;93.90;;;;;;5074041;28;20025;-78
2022/04/18 05:57:13;;;;;;;6.72;4.45;;;5.60;93.90;;;;;;5073098;28;20125;-78
2022/04/18 05:59:39;;;;;;;5.53;4.20;;;5.60;93.90;;;;;;5073540;28;20029;-79
2022/04/18 06:02:05;;;;;;;7.28;4.85;;;5.80;93.70;;;;;;5073485;28;20469;-77
2022/04/18 06:04:31;;;;;;;7.63;4.13;;;5.90;93.60;;;;;;5073445;28;20369;-78
2022/04/18 06:06:56;;;;;;;5.32;3.83;;;6.00;93.50;;;;;;5071689;28;20024;-78
2022/04/18 06:09:22;;;;;;;6.40;3.80;;;6.10;93.30;;;;;;5073371;28;20392;-79
2022/04/18 06:11:47;;;;;;;6.13;4.35;;;6.30;93.00;;;;;;5073282;28;20024;-77
2022/04/18 06:14:13;;;;;;;4.55;3.75;;;6.30;92.80;;;;;;5073524;28;20169;-79
2022/04/18 06:16:38;;;;;;;5.85;4.45;;;6.40;92.40;;;;;;5072742;28;20033;-79
2022/04/18 06:19:04;;;;;;;6.35;3.83;;;6.50;92.30;;;;;;5073352;28;20039;-78
2022/04/18 06:21:29;;;;;;;5.55;3.97;;;6.50;92.30;;;;;;5073339;28;20023;-79
2022/04/18 06:23:55;;;;;;;8.63;4.30;;;6.60;92.20;;;;;;5073569;28;20028;-78
2022/04/18 06:26:20;;;;;;;4.85;3.70;;;6.80;92.00;;;;;;5072495;28;20078;-77
2022/04/18 06:28:46;;;;;;;6.15;4.63;;;6.90;91.90;;;;;;5055241;28;20039;-77
2022/04/18 06:31:11;;;;;;;5.88;4.05;;;6.90;92.00;;;;;;5054826;28;20552;-78
2022/04/18 06:33:37;;;;;;;6.65;4.55;;;6.90;92.00;;;;;;5073136;28;20052;-78
2022/04/18 06:36:03;;;;;;;9.20;4.70;;;6.90;92.00;;;;;;5072459;28;20432;-77
2022/04/18 06:38:31;;;;;;;7.90;4.90;;;7.00;91.70;;;;;;5071899;28;20081;-80
2022/04/18 06:40:58;;;;;;;5.93;4.07;;;7.10;91.10;;;;;;5072794;28;20032;-80
2022/04/18 06:43:23;;;;;;;6.00;4.20;;;7.20;91.20;;;;;;5073035;28;20025;-78
2022/04/18 06:45:49;;;;;;;6.85;4.50;;;7.20;91.00;;;;;;5072346;28;20031;-79
2022/04/18 06:48:15;;;;;;;6.15;4.28;;;7.40;90.80;;;;;;5072925;28;20028;-78
2022/04/18 06:50:40;;;;;;;7.07;4.47;;;7.50;90.80;;;;;;5072575;28;20028;-80
2022/04/18 06:53:06;;;;;;;8.35;5.00;;;7.60;90.70;;;;;;5072414;28;20032;-81
2022/04/18 06:56:58;;;;;;;7.10;4.65;;;7.70;90.80;;;;;;5070550;28;20035;-79
2022/04/18 06:58:17;;;;;;;6.50;4.30;;;7.80;91.00;;;;;;5072619;28;20047;-78
2022/04/18 07:00:43;;;;;;;10.10;4.85;;;7.90;90.70;;;;;;5072447;28;20521;-78
2022/04/18 07:03:08;;;;;;;6.82;4.85;;;8.10;90.40;;;;;;5072882;28;20032;-78
2022/04/18 07:05:34;;;;;;;6.78;4.82;;;8.20;90.30;;;;;;5072083;28;20035;-80
2022/04/18 07:07:59;;;;;;;8.93;4.78;;;8.40;90.10;;;;;;5072639;28;20055;-78
2022/04/18 07:10:25;;;;;;;7.35;5.07;;;8.50;89.70;;;;;;5072947;28;20051;-78
2022/04/18 07:12:50;;;;;;;7.60;4.63;;;8.70;89.80;;;;;;5072823;28;20354;-79
2022/04/18 07:15:16;;;;;;;6.47;4.40;;;8.80;89.30;;;;;;5072580;28;20024;-80
2022/04/18 07:17:41;;;;;;;8.15;5.05;;;8.90;89.50;;;;;;5054650;28;20070;-79
2022/04/18 07:20:07;;;;;;;6.75;4.45;;;8.90;88.80;;;;;;5073044;28;20070;-78
2022/04/18 07:22:38;;;;;;;6.97;4.57;;;9.00;88.40;;;;;;5071847;28;20020;-79
2022/04/18 07:25:03;;;;;;;5.82;3.88;;;9.20;88.90;;;;;;5072412;28;20624;-77
2022/04/18 07:27:29;;;;;;;5.70;3.97;;;9.30;87.60;;;;;;5053599;28;20025;-78
2022/04/18 07:29:55;;;;;;;6.57;4.22;;;9.40;87.70;;;;;;5072170;28;20036;-78
2022/04/18 07:32:20;;;;;;;5.25;4.43;;;9.60;88.60;;;;;;5071747;28;20461;-76
2022/04/18 07:34:47;;;;;;;5.93;3.63;;;9.70;87.00;;;;;;5071294;28;20032;-75
2022/04/18 07:37:12;;;;;;;5.57;4.07;;;9.70;85.60;;;;;;5071251;28;20025;-78
2022/04/18 07:39:38;;;;;;;6.13;4.30;;;9.90;86.40;;;;;;5071677;28;20051;-80
2022/04/18 07:42:04;;;;;;;7.05;4.53;;;10.00;85.60;;;;;;5071988;28;20070;-78
2022/04/18 07:44:29;;;;;;;5.03;3.85;;;10.20;85.70;;;;;;5071923;28;20056;-76
2022/04/18 07:46:55;;;;;;;6.35;4.10;;;10.30;84.20;;;;;;5053305;28;20384;-78
2022/04/18 07:49:20;;;;;;;5.38;4.05;;;10.50;84.20;;;;;;5071245;28;20078;-80
2022/04/18 07:51:46;;;;;;;6.22;4.20;;;10.60;84.50;;;;;;5071567;28;20089;-78
2022/04/18 07:54:17;;;;;;;7.75;4.53;;;10.70;83.20;;;;;;5071424;28;20024;-79
2022/04/18 07:56:43;;;;;;;7.13;4.15;;;10.80;84.80;;;;;;5071085;28;20024;-77
2022/04/18 07:59:09;;;;;;;8.35;4.40;;;11.00;83.50;;;;;;5071675;28;20031;-77
2022/04/18 08:01:35;;;;;;;7.03;3.75;;;11.10;81.20;;;;;;5070958;28;20440;-78
2022/04/18 08:04:01;;;;;;;5.50;3.45;;;11.30;79.30;;;;;;5071523;28;20021;-81
2022/04/18 08:06:28;;;;;;;6.68;3.95;;;11.40;78.70;;;;;;5070507;28;20028;-78
2022/04/18 08:08:53;;;;;;;5.10;2.92;;;11.60;80.70;;;;;;5071238;28;20111;-80
2022/04/18 08:11:20;;;;;;;6.47;2.95;;;11.70;76.70;;;;;;5053184;28;20590;-77
2022/04/18 08:13:47;;;;;;;4.88;3.33;;;11.90;71.60;;;;;;5071477;28;20020;-78
2022/04/18 08:16:13;;;;;;;5.03;3.50;;;12.00;70.30;;;;;;5052722;28;20024;-77
2022/04/18 08:18:42;;;;;;;5.55;3.45;;;12.20;71.60;;;;;;5071906;28;20169;-80
2022/04/18 08:21:08;;;;;;;4.88;2.92;;;12.40;72.20;;;;;;5071703;28;20103;-78
2022/04/18 08:23:34;;;;;;;6.78;4.22;;;12.50;69.40;;;;;;5071322;28;20029;-79
2022/04/18 08:26:00;;;;;;;6.32;3.35;;;12.70;69.80;;;;;;5071602;28;20017;-80
2022/04/18 08:28:26;;;;;;;7.28;4.53;;;12.70;70.80;;;;;;5071893;28;20374;-78
2022/04/18 08:30:53;;;;;;;6.82;3.88;;;12.80;70.90;;;;;;5070756;28;20111;-79
2022/04/18 08:33:18;;;;;;;5.75;3.75;;;12.90;71.90;;;;;;5070847;28;20025;-78
2022/04/18 08:35:44;;;;;;;5.57;3.88;;;13.00;71.90;;;;;;5069978;28;20026;-79
2022/04/18 08:38:10;;;;;;;6.35;2.95;;;13.20;72.90;;;;;;5070561;28;20377;-79
2022/04/18 08:40:36;;;;;;;6.28;4.15;;;13.30;69.00;;;;;;5070681;28;20034;-78
2022/04/18 08:43:03;;;;;;;8.38;3.33;;;13.40;65.60;;;;;;5052384;28;20423;-79
2022/04/18 08:45:28;;;;;;;5.72;3.28;;;13.50;68.10;;;;;;5069892;28;20056;-78
2022/04/18 08:53:28;;;;;;;4.72;3.40;;;13.80;68.40;;;;;;5070794;28;20074;-80
2022/04/18 08:55:56;;;;;;;4.05;3.08;;;13.90;65.20;;;;;;5070139;28;20028;-78
2022/04/18 08:58:22;;;;;;;5.45;3.33;;;13.80;65.80;;;;;;5070482;28;20028;-79
2022/04/18 09:00:48;;;;;;;4.20;2.85;;;13.60;66.60;;;;;;5069631;28;20461;-78
2022/04/18 09:03:14;;;;;;;5.15;3.20;;;13.80;67.30;;;;;;5070436;28;20040;-77
2022/04/18 09:05:39;;;;;;;5.45;3.38;;;13.90;65.60;;;;;;5069742;28;20028;-80
2022/04/18 09:08:08;;;;;;;6.43;3.35;;;13.80;66.00;;;;;;5052267;28;20688;-83
2022/04/18 09:10:34;;;;;;;5.50;3.85;;;13.90;65.30;;;;;;5070099;28;20044;-80
2022/04/18 09:13:03;;;;;;;5.40;3.72;;;14.00;66.30;;;;;;5070296;28;20129;-82
2022/04/18 09:15:36;;;;;;;5.65;3.40;;;14.10;66.80;;;;;;5069867;28;20039;-78
2022/04/18 09:18:13;;;;;;;4.93;3.58;;;14.30;68.30;;;;;;5070348;28;20035;-79
2022/04/18 09:20:47;;;;;;;6.05;4.07;;;14.40;65.10;;;;;;5068453;28;20494;-78
2022/04/18 09:23:32;;;;;;;6.53;3.60;;;14.40;65.90;;;;;;5070504;28;20017;-79
2022/04/18 09:26:01;;;;;;;4.32;3.22;;;14.50;63.70;;;;;;5069490;28;20020;-79
2022/04/18 09:28:32;;;;;;;4.45;3.13;;;14.40;65.60;;;;;;5070326;28;20368;-79
2022/04/18 09:31:08;;;;;;;4.65;3.08;;;14.50;64.50;;;;;;5069894;28;20036;-79
2022/04/18 09:33:44;;;;;;;4.43;2.80;;;14.70;64.60;;;;;;5068823;28;20033;-80
2022/04/18 09:36:17;;;;;;;4.60;2.45;;;14.80;61.10;;;;;;5069339;28;20115;-81
2022/04/18 09:38:45;;;;;;;5.53;3.20;;;14.80;58.50;;;;;;5070570;28;20020;-80
2022/04/18 09:41:13;;;;;;;5.80;3.53;;;14.90;59.80;;;;;;5069892;28;20082;-81
2022/04/18 09:43:44;;;;;;;4.43;2.85;;;15.00;62.00;;;;;;5070097;28;20021;-81
2022/04/18 09:46:12;;;;;;;4.60;1.90;;;15.10;58.30;;;;;;5069350;28;20024;-82
2022/04/18 09:48:38;;;;;;;3.20;2.08;;;15.10;58.80;;;;;;5069915;28;20024;-81
2022/04/18 09:51:15;;;;;;;3.13;2.17;;;15.20;55.90;;;;;;5068291;28;20028;-78
2022/04/18 09:53:44;;;;;;;3.03;2.08;;;15.30;55.20;;;;;;5070012;28;20077;-80
2022/04/18 09:56:14;;;;;;;5.10;2.58;;;15.40;55.40;;;;;;5069397;28;20023;-80
2022/04/18 09:58:40;;;;;;;2.03;1.58;;;15.40;57.50;;;;;;5069749;28;20025;-78
2022/04/18 10:01:06;;;;;;;3.65;2.33;;;15.40;54.50;;;;;;5069601;28;20043;-81
2022/04/18 10:03:33;;;;;;;3.45;2.80;;;15.40;55.10;;;;;;5069641;28;20025;-78
2022/04/18 10:06:00;;;;;;;4.43;2.85;;;15.60;57.20;;;;;;5069353;28;20021;-79
2022/04/18 10:08:27;;;;;;;5.35;2.38;;;15.60;56.50;;;;;;5069693;28;20027;-80
2022/04/18 10:10:56;;;;;;;2.97;2.13;;;15.60;55.60;;;;;;5051567;28;20678;-80
2022/04/18 10:13:21;;;;;;;4.40;2.63;;;15.60;54.80;;;;;;5073438;28;20028;-78
2022/04/18 10:15:49;;;;;;;3.58;2.30;;;15.60;53.90;;;;;;5072908;28;20361;-79
2022/04/18 10:18:16;;;;;;;4.60;2.30;;;15.70;55.40;;;;;;5073490;28;20108;-79
2022/04/18 10:21:06;;;;;;;3.70;2.38;;;15.70;53.80;;;;;;5073491;28;20032;-80
2022/04/18 10:24:05;;;;;;;3.45;2.13;;;15.90;52.40;;;;;;5073272;28;20029;-80
2022/04/18 10:26:43;;;;;;;2.60;1.92;;;16.00;50.50;;;;;;5072646;28;20406;-78
2022/04/18 10:29:13;;;;;;;3.05;2.10;;;15.90;51.50;;;;;;5071896;28;20483;-83
2022/04/18 10:31:42;;;;;;;3.03;1.88;;;16.00;53.40;;;;;;5072906;28;20093;-78
2022/04/18 10:34:11;;;;;;;3.35;2.20;;;16.10;49.60;;;;;;5071831;28;20016;-79
2022/04/18 10:36:45;;;;;;;3.38;2.00;;;16.20;52.20;;;;;;5072427;28;20029;-78
2022/04/18 10:39:11;;;;;;;3.20;2.20;;;16.20;52.20;;;;;;5073015;28;20039;-80
2022/04/18 10:41:41;;;;;;;2.75;1.65;;;16.30;53.90;;;;;;5072675;28;20025;-78
2022/04/18 10:44:15;;;;;;;3.17;2.28;;;16.40;54.60;;;;;;5072961;28;20028;-81
2022/04/18 10:46:43;;;;;;;3.78;2.58;;;16.40;53.30;;;;;;5072206;28;20364;-79
2022/04/18 10:49:16;;;;;;;6.68;2.20;;;16.50;54.00;;;;;;5072753;28;20055;-80
2022/04/18 10:51:44;;;;;;;3.80;2.42;;;16.40;54.40;;;;;;5072731;28;20029;-80
2022/04/18 10:54:18;;;;;;;2.53;2.08;;;16.40;54.00;;;;;;5072994;28;20017;-79
2022/04/18 10:56:58;;;;;;;3.28;1.90;;;16.20;53.50;;;;;;5054078;28;20017;-81
2022/04/18 10:59:29;;;;;;;2.08;1.77;;;16.20;51.50;;;;;;5072924;28;20028;-78
2022/04/18 11:01:57;;;;;;;4.75;2.00;;;16.30;54.70;;;;;;5054533;28;20027;-79
2022/04/18 11:04:27;;;;;;;3.15;2.10;;;16.40;55.00;;;;;;5072673;28;20074;-79
2022/04/18 11:07:00;;;;;;;3.58;2.25;;;16.60;55.00;;;;;;5071983;28;20074;-79
2022/04/18 11:09:27;;;;;;;3.67;2.03;;;16.70;52.20;;;;;;5072372;28;20051;-82
2022/04/18 11:12:05;;;;;;;2.30;2.10;;;16.80;51.00;;;;;;5072314;28;20089;-81
2022/04/18 11:14:47;;;;;;;2.60;1.85;;;16.70;54.10;;;;;;5072443;28;20453;-80
2022/04/18 11:17:25;;;;;;;3.55;1.70;;;16.60;51.80;;;;;;5071689;28;20017;-79
2022/04/18 11:19:51;;;;;;;2.65;1.50;;;16.70;52.80;;;;;;5073013;28;20029;-81
2022/04/18 11:22:22;;;;;;;3.03;1.75;;;16.70;54.00;;;;;;5072031;28;20032;-81
2022/04/18 11:24:54;;;;;;;5.90;1.90;;;16.80;54.10;;;;;;5071975;28;20027;-81
2022/04/18 11:27:26;;;;;;;2.88;1.77;;;16.90;52.50;;;;;;5072170;28;20017;-80
2022/04/18 11:30:00;;;;;;;2.42;1.50;;;17.00;51.70;;;;;;5072272;28;20085;-82
2022/04/18 11:32:46;;;;;;;2.92;1.67;;;16.90;57.00;;;;;;5070659;28;20075;-79
2022/04/18 11:35:13;;;;;;;4.97;1.80;;;17.20;56.10;;;;;;5071862;28;20536;-78
2022/04/18 11:37:40;;;;;;;3.78;1.95;;;17.30;51.50;;;;;;5071826;28;20457;-81
2022/04/18 11:40:11;;;;;;;3.10;1.50;;;17.40;53.20;;;;;;5054663;28;20606;-82
2022/04/18 11:42:38;;;;;;;4.30;2.45;;;17.60;52.90;;;;;;5072086;28;20091;-79
2022/04/18 11:45:09;;;;;;;3.58;1.95;;;17.70;51.30;;;;;;5072453;28;20040;-79
2022/04/18 11:47:44;;;;;;;2.20;1.60;;;17.50;51.50;;;;;;5071801;28;20020;-79
2022/04/18 11:50:11;;;;;;;1.98;1.35;;;17.60;54.70;;;;;;5072041;28;20031;-81
2022/04/18 11:52:41;;;;;;;2.35;1.23;;;17.80;51.50;;;;;;5071269;28;20033;-81
2022/04/18 11:55:14;;;;;;;1.75;1.20;;;17.70;50.40;;;;;;5071548;28;20060;-81
2022/04/18 11:57:41;;;;;;;;;;;17.50;52.40;;;;;;5071637;28;20042;-81
2022/04/18 12:00:12;;;;;;;2.30;1.63;;;17.40;50.70;;;;;;5053539;28;19911;-79
2022/04/18 12:08:12;;;;;;;2.75;1.48;;;17.30;53.00;;;;;;5071392;28;20023;-83
2022/04/18 12:10:41;;;;;;;6.15;1.25;;;17.50;53.80;;;;;;5070924;28;20036;-79
2022/04/18 12:13:15;;;;;;;2.47;1.40;;;17.80;54.20;;;;;;5071098;28;20031;-81
2022/04/18 12:15:42;;;;;;;2.95;1.38;;;18.10;53.20;;;;;;5052483;28;20021;-80
2022/04/18 12:18:18;;;;;;;2.83;1.67;;;18.30;50.40;;;;;;5071337;28;20025;-81
2022/04/18 12:20:49;;;;;;;1.92;1.30;;;18.50;52.10;;;;;;5070812;28;20060;-82
2022/04/18 12:23:26;;;;;;;2.15;1.30;;;18.70;50.60;;;;;;5071352;28;20035;-82
2022/04/18 12:25:53;;;;;;;3.47;1.20;;;18.80;49.10;;;;;;5052707;28;20020;-82
2022/04/18 12:28:21;;;;;;;2.47;1.52;;;18.70;49.90;;;;;;5053285;28;20033;-81
2022/04/18 12:30:47;;;;;;;2.60;1.30;;;18.70;48.30;;;;;;5070220;28;20029;-79
2022/04/18 12:33:16;;;;;;;2.42;1.00;;;18.70;47.60;;;;;;5070919;28;20085;-81
2022/04/18 12:35:43;;;;;;;1.58;1.00;;;18.70;50.00;;;;;;5069394;28;20025;-82
2022/04/18 12:38:11;;;;;;;1.92;1.10;;;18.70;49.60;;;;;;5052813;28;20472;-82
2022/04/18 12:40:39;;;;;;;1.80;1.15;;;18.80;47.10;;;;;;5070600;28;20358;-81
2022/04/18 12:43:16;;;;;;;3.33;1.38;;;18.90;49.20;;;;;;5070838;28;20032;-82
2022/04/18 12:45:45;;;;;;;3.83;1.35;;;19.10;48.00;;;;;;5069952;28;20020;-80
2022/04/18 12:48:11;;;;;;;2.83;1.45;;;18.80;47.50;;;;;;5070665;28;20453;-81
2022/04/18 12:50:37;;;;;;;1.65;0.73;;;18.80;49.10;;;;;;5070439;28;20025;-82
2022/04/18 12:53:02;;;;;;;0.90;0.60;;;18.80;45.40;;;;;;5070287;28;20029;-81
2022/04/18 12:55:30;;;;;;;0.73;0.65;;;18.80;45.90;;;;;;5051984;28;20035;-80
2022/04/18 12:57:56;;;;;;;2.03;0.60;;;18.80;45.70;;;;;;5071149;28;20465;-80
2022/04/18 13:00:22;;;;;;;1.45;0.90;;;18.80;44.60;;;;;;5070467;28;20107;-80
2022/04/18 13:03:03;;;;;;;2.38;1.40;;;18.50;46.80;;;;;;5070066;28;20052;-82
2022/04/18 13:05:31;;;;;;;1.98;1.05;;;18.30;47.40;;;;;;5070054;28;20032;-81
2022/04/18 13:08:07;;;;;;;2.25;1.52;;;18.30;49.00;;;;;;5070143;28;20469;-82